Time;durP1;ratioP1;P1;durP2;ratioP2;P2;SDS_P1;SDS_P2;PMS_P1;PMS_P2;Temp;Humidity;BMP_temperature;BMP_pressure;BME280_temperature;BME280_humidity;BME280_pressure;Samples;Min_cycle;Max_cycle;Signal;HPM_P1;HPM_P2
2022/01/11 00:01:41;;;;;;;7.45;3.05;;;27.60;55.50;;;;;;5066189;28;20242;-45
2022/01/11 00:04:16;;;;;;;6.15;2.75;;;27.50;55.30;;;;;;5065647;28;20264;-43
2022/01/11 00:06:49;;;;;;;5.60;2.70;;;27.60;55.30;;;;;;5062288;28;20204;-45
2022/01/11 00:09:31;;;;;;;7.13;3.13;;;27.60;55.20;;;;;;5063034;28;20213;-43
2022/01/11 00:12:02;;;;;;;6.40;3.08;;;27.70;55.20;;;;;;5059277;28;20226;-43
2022/01/11 00:14:32;;;;;;;7.68;3.03;;;27.70;55.10;;;;;;5067425;28;20287;-44
2022/01/11 00:17:03;;;;;;;5.28;3.00;;;27.80;55.10;;;;;;5048502;28;20286;-45
2022/01/11 00:19:35;;;;;;;7.57;2.90;;;27.80;54.90;;;;;;5039788;28;20718;-47
2022/01/11 00:22:15;;;;;;;6.80;2.60;;;27.80;54.80;;;;;;5037000;28;20287;-45
2022/01/11 00:24:44;;;;;;;5.63;2.92;;;27.90;54.70;;;;;;5034192;28;20243;-44
2022/01/11 00:27:14;;;;;;;5.75;3.17;;;27.90;54.50;;;;;;5049672;28;20282;-49
2022/01/11 00:29:49;;;;;;;6.20;3.05;;;27.90;54.40;;;;;;5046107;28;20779;-43
2022/01/11 00:32:29;;;;;;;5.50;3.00;;;28.00;54.40;;;;;;5045678;28;20628;-48
2022/01/11 00:35:03;;;;;;;4.28;2.60;;;28.00;54.30;;;;;;5048453;28;20203;-46
2022/01/11 00:37:33;;;;;;;7.78;3.33;;;28.10;54.30;;;;;;5060404;28;20616;-43
2022/01/11 00:40:04;;;;;;;5.63;2.95;;;28.10;54.20;;;;;;5031239;28;20287;-47
2022/01/11 00:42:35;;;;;;;4.32;2.90;;;28.10;54.10;;;;;;5046684;28;20302;-45
2022/01/11 00:45:07;;;;;;;5.05;2.97;;;28.10;54.10;;;;;;5041496;28;20224;-45
2022/01/11 00:47:37;;;;;;;5.82;2.90;;;28.10;54.00;;;;;;5036097;28;20282;-50
2022/01/11 00:50:11;;;;;;;5.50;3.08;;;28.20;54.00;;;;;;5044446;28;20286;-49
2022/01/11 00:52:42;;;;;;;4.45;3.10;;;28.20;53.90;;;;;;5037647;28;20234;-42
2022/01/11 00:55:13;;;;;;;6.10;3.28;;;28.20;53.80;;;;;;5044084;28;20290;-41
2022/01/11 00:57:43;;;;;;;4.68;2.75;;;28.30;54.40;;;;;;5043267;28;20620;-43
2022/01/11 01:00:14;;;;;;;3.65;2.80;;;28.30;53.70;;;;;;5040429;28;20276;-48
2022/01/11 01:02:45;;;;;;;5.35;3.22;;;28.30;53.60;;;;;;5032201;28;20296;-51
2022/01/11 01:05:18;;;;;;;3.22;2.60;;;28.40;53.60;;;;;;5049937;28;20295;-50
2022/01/11 01:07:48;;;;;;;4.88;3.10;;;28.50;53.50;;;;;;5045736;28;20199;-41
2022/01/11 01:10:26;;;;;;;4.70;2.80;;;28.50;53.50;;;;;;5046961;28;20287;-43
2022/01/11 01:12:56;;;;;;;4.65;2.60;;;28.50;53.40;;;;;;5048609;28;20688;-44
2022/01/11 01:15:28;;;;;;;5.47;2.92;;;28.50;53.30;;;;;;5047854;28;20203;-46
2022/01/11 01:17:59;;;;;;;4.07;2.72;;;28.60;53.20;;;;;;5036450;28;20286;-44
2022/01/11 01:20:31;;;;;;;5.13;3.05;;;28.60;53.00;;;;;;5039765;28;20727;-45
2022/01/11 01:23:02;;;;;;;5.30;2.63;;;28.60;53.00;;;;;;5045950;28;20302;-41
2022/01/11 01:25:33;;;;;;;4.28;2.80;;;28.60;52.90;;;;;;5030686;28;20601;-44
2022/01/11 01:28:03;;;;;;;4.43;2.40;;;28.70;52.80;;;;;;5046499;28;20639;-41
2022/01/11 01:30:34;;;;;;;4.07;2.65;;;28.70;52.60;;;;;;5045473;28;20235;-43
2022/01/11 01:33:05;;;;;;;4.15;2.85;;;28.70;52.50;;;;;;5046667;28;20311;-44
2022/01/11 01:35:39;;;;;;;5.03;2.88;;;28.80;52.50;;;;;;5062352;28;20655;-44
2022/01/11 01:38:11;;;;;;;3.75;2.47;;;28.80;52.50;;;;;;5032389;28;20196;-44
2022/01/11 01:40:45;;;;;;;2.85;2.35;;;28.80;52.40;;;;;;5034849;28;20286;-41
2022/01/11 01:43:16;;;;;;;3.17;2.45;;;28.80;52.40;;;;;;5045920;28;20210;-50
2022/01/11 01:45:49;;;;;;;2.97;2.63;;;28.90;52.30;;;;;;5050941;28;20249;-41
2022/01/11 01:48:20;;;;;;;3.90;2.50;;;28.90;52.20;;;;;;5037755;28;20608;-41
2022/01/11 01:50:53;;;;;;;3.63;2.78;;;28.90;52.20;;;;;;5040109;28;20237;-47
2022/01/11 01:53:24;;;;;;;3.63;2.33;;;28.90;52.10;;;;;;5045788;28;20258;-47
2022/01/11 01:55:55;;;;;;;4.13;2.50;;;28.90;52.00;;;;;;5042616;28;20702;-49
2022/01/11 01:58:26;;;;;;;3.85;2.60;;;29.00;52.00;;;;;;5034521;28;20656;-50
2022/01/11 02:01:02;;;;;;;4.80;2.40;;;29.00;52.00;;;;;;5046345;28;20200;-49
2022/01/11 02:03:38;;;;;;;3.05;2.20;;;29.00;51.90;;;;;;5043044;28;20223;-44
2022/01/11 02:06:11;;;;;;;3.03;2.40;;;29.10;52.00;;;;;;5037923;28;20211;-43
2022/01/11 02:08:42;;;;;;;4.07;2.50;;;29.10;51.80;;;;;;5035742;28;20288;-43
2022/01/11 02:11:13;;;;;;;2.88;2.45;;;29.10;51.70;;;;;;5034138;28;20235;-51
2022/01/11 02:13:44;;;;;;;3.58;2.47;;;29.20;51.70;;;;;;5031266;28;20706;-44
2022/01/11 02:16:15;;;;;;;2.90;2.30;;;29.20;51.60;;;;;;5045278;28;20639;-51
2022/01/11 02:18:46;;;;;;;3.65;2.13;;;29.20;51.50;;;;;;5046056;28;20204;-46
2022/01/11 02:21:19;;;;;;;3.85;2.33;;;29.20;51.40;;;;;;5049524;28;20201;-49
2022/01/11 02:23:50;;;;;;;2.55;2.25;;;29.20;51.30;;;;;;5052006;28;20589;-52
2022/01/11 02:26:21;;;;;;;3.03;2.35;;;29.30;51.40;;;;;;5064057;28;20289;-52
2022/01/11 02:28:53;;;;;;;4.30;2.63;;;29.30;51.30;;;;;;5044107;28;20231;-51
2022/01/11 02:31:24;;;;;;;4.05;2.75;;;29.30;51.30;;;;;;5050058;28;20667;-51
2022/01/11 02:33:58;;;;;;;4.07;2.50;;;29.30;51.30;;;;;;5064835;28;20305;-41
2022/01/11 02:36:35;;;;;;;4.25;2.40;;;29.40;51.30;;;;;;5033224;28;20643;-50
2022/01/11 02:39:06;;;;;;;3.90;2.67;;;29.40;51.30;;;;;;5039690;28;20317;-45
2022/01/11 02:41:37;;;;;;;4.20;2.80;;;29.40;51.20;;;;;;5051253;28;20201;-50
2022/01/11 02:44:08;;;;;;;3.35;2.83;;;29.40;51.20;;;;;;5059374;28;20215;-50
2022/01/11 02:46:39;;;;;;;3.50;2.97;;;29.50;51.20;;;;;;5051201;28;20279;-50
2022/01/11 02:49:10;;;;;;;3.15;2.75;;;29.50;51.20;;;;;;5035686;28;20235;-50
2022/01/11 02:51:42;;;;;;;3.67;2.50;;;29.50;51.20;;;;;;5045772;28;20944;-41
2022/01/11 02:54:13;;;;;;;4.15;2.70;;;29.50;51.20;;;;;;5045233;28;20571;-49
2022/01/11 02:56:43;;;;;;;4.97;2.90;;;29.50;51.10;;;;;;5038666;28;20901;-45
2022/01/11 02:59:14;;;;;;;3.67;2.58;;;29.50;51.00;;;;;;5033067;28;20227;-49
2022/01/11 03:01:45;;;;;;;4.88;2.58;;;29.60;51.10;;;;;;5043923;28;20287;-45
2022/01/11 03:04:15;;;;;;;3.88;2.78;;;29.60;51.00;;;;;;5053847;28;20218;-53
2022/01/11 03:06:48;;;;;;;2.65;2.35;;;29.60;51.00;;;;;;5058196;28;20306;-45
2022/01/11 03:09:19;;;;;;;3.75;2.65;;;29.60;50.90;;;;;;5050199;28;20199;-48
2022/01/11 03:11:51;;;;;;;3.40;2.75;;;29.60;50.90;;;;;;5050301;28;20372;-50
2022/01/11 03:14:21;;;;;;;3.25;2.58;;;29.60;50.90;;;;;;5048797;28;20259;-41
2022/01/11 03:16:52;;;;;;;3.47;2.80;;;29.60;50.80;;;;;;5045468;28;20616;-51
2022/01/11 03:19:22;;;;;;;3.53;2.58;;;29.60;50.80;;;;;;5037075;28;20286;-45
2022/01/11 03:21:54;;;;;;;3.38;2.60;;;29.60;50.90;;;;;;5051662;28;20223;-46
2022/01/11 03:24:25;;;;;;;3.00;2.40;;;29.60;50.90;;;;;;5048468;28;20294;-46
2022/01/11 03:26:55;;;;;;;2.85;2.55;;;29.60;50.90;;;;;;5041122;28;20235;-44
2022/01/11 03:29:26;;;;;;;3.88;2.90;;;29.70;51.00;;;;;;5038421;28;20259;-46
2022/01/11 03:31:56;;;;;;;3.28;2.90;;;29.70;50.90;;;;;;5050650;28;20283;-45
2022/01/11 03:34:27;;;;;;;9.75;4.95;;;29.70;51.00;;;;;;5051002;28;20667;-43
2022/01/11 03:36:59;;;;;;;8.65;4.32;;;29.70;51.00;;;;;;5048202;28;20283;-49
2022/01/11 03:39:30;;;;;;;7.72;4.22;;;29.60;51.00;;;;;;5047809;28;20274;-48
2022/01/11 03:42:01;;;;;;;8.43;4.80;;;29.60;51.00;;;;;;5048290;28;20287;-43
2022/01/11 03:44:32;;;;;;;12.80;4.53;;;29.60;51.10;;;;;;5039873;28;20218;-45
2022/01/11 03:47:02;;;;;;;10.98;5.07;;;29.60;51.20;;;;;;5039822;28;20286;-45
2022/01/11 03:49:33;;;;;;;7.80;4.30;;;29.60;51.20;;;;;;5039033;28;20222;-50
2022/01/11 03:52:06;;;;;;;9.57;4.35;;;29.60;51.20;;;;;;5045235;28;20231;-43
2022/01/11 03:55:01;;;;;;;9.40;4.93;;;29.60;51.30;;;;;;5049107;28;20307;-44
2022/01/11 03:57:32;;;;;;;7.78;4.82;;;29.60;51.30;;;;;;5051091;28;20195;-47
2022/01/11 04:00:03;;;;;;;8.05;4.85;;;29.60;51.20;;;;;;5045094;28;20290;-49
2022/01/11 04:02:34;;;;;;;4.93;4.07;;;29.60;51.20;;;;;;5047348;28;20254;-41
2022/01/11 04:05:05;;;;;;;7.05;4.32;;;29.60;51.20;;;;;;5046848;28;20238;-44
2022/01/11 04:07:38;;;;;;;6.18;4.70;;;29.70;51.20;;;;;;5036160;28;20199;-41
2022/01/11 04:10:09;;;;;;;8.65;4.90;;;29.60;51.20;;;;;;5032103;28;20350;-43
2022/01/11 04:12:40;;;;;;;5.95;4.53;;;29.70;51.20;;;;;;5049220;28;20229;-49
2022/01/11 04:15:11;;;;;;;5.63;4.57;;;29.70;51.20;;;;;;5054685;28;20337;-48
2022/01/11 04:17:42;;;;;;;8.68;4.80;;;29.70;51.10;;;;;;5062720;28;20303;-51
2022/01/11 04:20:14;;;;;;;7.05;4.60;;;29.70;51.20;;;;;;5067690;28;20243;-51
2022/01/11 04:22:47;;;;;;;7.15;4.93;;;29.70;51.10;;;;;;5063657;28;20297;-45
2022/01/11 04:25:17;;;;;;;4.95;4.35;;;29.70;51.10;;;;;;5063313;28;20290;-41
2022/01/11 04:27:49;;;;;;;6.45;4.30;;;29.80;51.10;;;;;;5062304;28;20319;-44
2022/01/11 04:30:19;;;;;;;6.80;4.70;;;29.80;51.10;;;;;;5064270;28;20290;-44
2022/01/11 04:32:50;;;;;;;5.15;4.25;;;29.80;51.00;;;;;;5064699;28;20301;-44
2022/01/11 04:35:21;;;;;;;6.47;4.25;;;29.80;51.00;;;;;;5061923;28;20222;-41
2022/01/11 04:37:53;;;;;;;6.47;4.68;;;29.80;50.90;;;;;;5062002;28;20316;-53
2022/01/11 04:40:24;;;;;;;5.88;5.07;;;29.80;50.90;;;;;;5061821;28;20286;-44
2022/01/11 04:42:54;;;;;;;8.43;6.15;;;29.80;50.90;;;;;;5065557;28;20303;-48
2022/01/11 04:45:25;;;;;;;10.88;5.95;;;29.80;50.90;;;;;;5062999;28;20240;-44
2022/01/11 04:47:56;;;;;;;8.48;6.45;;;29.80;50.90;;;;;;5060847;28;20238;-42
2022/01/11 04:50:28;;;;;;;12.32;6.82;;;29.80;50.90;;;;;;5060836;28;20207;-41
2022/01/11 04:53:01;;;;;;;9.60;6.00;;;29.70;50.90;;;;;;5063971;28;20250;-46
2022/01/11 04:56:06;;;;;;;10.57;6.90;;;29.70;51.00;;;;;;5062551;28;20361;-41
2022/01/11 04:58:37;;;;;;;10.93;6.55;;;29.70;51.10;;;;;;5065442;28;20197;-42
2022/01/11 05:01:08;;;;;;;7.97;6.30;;;29.70;51.10;;;;;;5061514;28;20290;-48
2022/01/11 05:03:38;;;;;;;9.32;6.25;;;29.70;51.10;;;;;;5060204;28;20306;-43
2022/01/11 05:06:09;;;;;;;10.55;5.90;;;29.60;51.00;;;;;;5063920;28;20245;-44
2022/01/11 05:08:42;;;;;;;6.80;6.00;;;29.60;51.00;;;;;;5067200;28;20278;-44
2022/01/11 05:11:13;;;;;;;9.70;6.53;;;29.60;51.10;;;;;;5064009;28;20813;-43
2022/01/11 05:13:43;;;;;;;7.95;6.07;;;29.60;51.00;;;;;;5060237;28;20260;-43
2022/01/11 05:16:14;;;;;;;8.18;6.10;;;29.60;51.10;;;;;;5061355;28;20290;-52
2022/01/11 05:18:45;;;;;;;7.75;6.22;;;29.60;51.10;;;;;;5064777;28;20298;-41
2022/01/11 05:21:15;;;;;;;6.97;5.60;;;29.60;51.10;;;;;;5065147;28;20278;-47
2022/01/11 05:23:47;;;;;;;7.93;6.13;;;29.60;51.00;;;;;;5062246;28;20301;-41
2022/01/11 05:26:18;;;;;;;5.65;5.15;;;29.60;51.00;;;;;;5061252;28;20286;-41
2022/01/11 05:28:48;;;;;;;7.57;5.93;;;29.60;51.00;;;;;;5060285;28;20681;-41
2022/01/11 05:31:19;;;;;;;7.25;6.13;;;29.60;50.90;;;;;;5066235;28;20628;-43
2022/01/11 05:33:49;;;;;;;7.25;5.55;;;29.60;50.90;;;;;;5061110;28;20215;-43
2022/01/11 05:36:20;;;;;;;6.22;5.60;;;29.60;50.90;;;;;;5061354;28;20294;-43
2022/01/11 05:38:53;;;;;;;5.90;5.40;;;29.60;50.90;;;;;;5060904;28;20321;-41
2022/01/11 05:41:24;;;;;;;6.47;5.28;;;29.60;50.90;;;;;;5064412;28;20207;-42
2022/01/11 05:43:54;;;;;;;7.68;5.30;;;29.60;50.80;;;;;;5063803;28;20309;-41
2022/01/11 05:46:25;;;;;;;6.63;5.55;;;29.60;50.70;;;;;;5062196;28;20290;-42
2022/01/11 05:48:55;;;;;;;6.32;5.35;;;29.60;50.70;;;;;;5059227;28;20287;-40
2022/01/11 05:51:27;;;;;;;6.10;5.38;;;29.60;50.60;;;;;;5063726;28;20248;-41
2022/01/11 05:54:00;;;;;;;5.38;4.85;;;29.50;50.50;;;;;;5064191;28;20219;-47
2022/01/11 05:56:30;;;;;;;7.80;5.38;;;29.50;50.50;;;;;;5063444;28;20682;-42
2022/01/11 05:59:01;;;;;;;7.72;5.47;;;29.50;50.50;;;;;;5061725;28;20286;-43
2022/01/11 06:01:31;;;;;;;6.38;4.90;;;29.50;50.50;;;;;;5059163;28;20195;-41
2022/01/11 06:04:02;;;;;;;5.35;4.85;;;29.50;50.50;;;;;;5063970;28;20335;-41
2022/01/11 06:06:32;;;;;;;6.80;5.10;;;29.50;50.50;;;;;;5064631;28;20670;-45
2022/01/11 06:09:04;;;;;;;6.40;5.43;;;29.50;50.60;;;;;;5061210;28;20730;-41
2022/01/11 06:11:35;;;;;;;5.45;4.82;;;29.40;50.50;;;;;;5060387;28;20272;-42
2022/01/11 06:14:05;;;;;;;5.90;5.30;;;29.40;50.50;;;;;;5059778;28;20305;-46
2022/01/11 06:16:36;;;;;;;5.13;4.72;;;29.40;50.50;;;;;;5063947;28;20309;-46
2022/01/11 06:19:07;;;;;;;5.32;4.80;;;29.40;50.50;;;;;;5054433;28;20198;-41
2022/01/11 06:21:40;;;;;;;5.25;4.75;;;29.40;50.50;;;;;;5058054;28;21590;-43
2022/01/11 06:24:12;;;;;;;5.03;4.63;;;29.40;50.50;;;;;;5058796;28;20777;-45
2022/01/11 06:26:43;;;;;;;5.00;4.55;;;29.30;50.50;;;;;;5062992;28;20286;-42
2022/01/11 06:29:14;;;;;;;4.85;4.35;;;29.30;50.50;;;;;;5063706;28;20650;-41
2022/01/11 06:31:44;;;;;;;5.55;4.90;;;29.30;50.40;;;;;;5060529;28;20278;-42
2022/01/11 06:34:14;;;;;;;5.45;4.40;;;29.30;50.50;;;;;;5059164;28;20313;-43
2022/01/11 06:36:45;;;;;;;4.93;4.53;;;29.30;50.30;;;;;;5062891;28;20351;-48
2022/01/11 06:39:17;;;;;;;5.20;4.70;;;29.30;50.30;;;;;;5065473;28;20279;-42
2022/01/11 06:41:48;;;;;;;6.20;5.30;;;29.20;50.20;;;;;;5060837;28;20282;-41
2022/01/11 06:44:18;;;;;;;4.82;4.43;;;29.20;50.20;;;;;;5061170;28;20309;-41
2022/01/11 06:46:49;;;;;;;7.05;4.70;;;29.10;50.10;;;;;;5059796;28;20195;-42
2022/01/11 06:49:19;;;;;;;5.55;4.72;;;29.10;50.10;;;;;;5059176;28;20199;-41
2022/01/11 06:51:50;;;;;;;5.43;4.68;;;29.10;50.10;;;;;;5061168;28;20278;-42
2022/01/11 06:54:22;;;;;;;5.45;4.93;;;29.10;50.20;;;;;;5060328;28;20218;-42
2022/01/11 06:56:52;;;;;;;5.40;4.95;;;29.00;50.10;;;;;;5061142;28;20197;-42
2022/01/11 06:59:23;;;;;;;4.63;4.22;;;29.00;50.10;;;;;;5060082;28;20283;-44
2022/01/11 07:01:53;;;;;;;5.80;3.83;;;29.00;50.20;;;;;;5063620;28;20306;-47
2022/01/11 07:04:24;;;;;;;5.88;3.40;;;29.00;49.50;;;;;;5061130;28;20654;-41
2022/01/11 07:06:54;;;;;;;3.88;3.25;;;28.90;48.60;;;;;;5064728;28;20283;-43
2022/01/11 07:09:26;;;;;;;13.27;4.00;;;28.90;48.20;;;;;;5065666;28;20283;-42
2022/01/11 07:11:57;;;;;;;8.00;4.00;;;28.80;48.00;;;;;;5066974;28;20321;-41
2022/01/11 07:14:27;;;;;;;5.63;3.83;;;28.70;48.10;;;;;;5068574;28;20393;-41
2022/01/11 07:16:58;;;;;;;5.28;3.42;;;28.70;48.40;;;;;;5065507;28;20293;-41
2022/01/11 07:19:29;;;;;;;5.72;3.50;;;28.60;48.60;;;;;;5054659;28;20295;-45
2022/01/11 07:22:00;;;;;;;4.82;3.67;;;28.60;48.70;;;;;;5053170;28;20195;-42
2022/01/11 07:24:32;;;;;;;4.50;3.40;;;28.60;48.70;;;;;;5068212;28;20202;-48
2022/01/11 07:27:03;;;;;;;6.68;3.55;;;28.50;48.70;;;;;;5066180;28;20191;-45
2022/01/11 07:29:33;;;;;;;5.90;3.28;;;28.50;48.80;;;;;;5063591;28;20281;-42
2022/01/11 07:32:04;;;;;;;5.75;3.65;;;28.50;48.90;;;;;;5063039;28;20227;-43
2022/01/11 07:34:35;;;;;;;4.38;3.10;;;28.40;48.90;;;;;;5068781;28;20305;-41
2022/01/11 07:37:05;;;;;;;5.65;4.10;;;28.40;49.00;;;;;;5066496;28;20207;-41
2022/01/11 07:39:38;;;;;;;5.70;3.42;;;28.40;49.00;;;;;;5063999;28;20298;-41
2022/01/11 07:42:08;;;;;;;4.90;3.45;;;28.40;49.00;;;;;;5063205;28;20225;-42
2022/01/11 07:44:39;;;;;;;4.43;3.53;;;28.30;49.00;;;;;;5061831;28;20279;-41
2022/01/11 07:47:09;;;;;;;5.13;3.42;;;28.30;49.00;;;;;;5067106;28;20296;-46
2022/01/11 07:49:40;;;;;;;3.63;3.25;;;28.20;49.00;;;;;;5063957;28;20218;-43
2022/01/11 07:52:10;;;;;;;5.45;3.67;;;28.30;49.10;;;;;;5051998;28;20282;-45
2022/01/11 07:54:43;;;;;;;5.35;3.35;;;28.30;49.10;;;;;;5064927;28;20215;-42
2022/01/11 07:57:13;;;;;;;4.45;3.80;;;28.20;49.10;;;;;;5067148;28;20302;-41
2022/01/11 07:59:44;;;;;;;5.20;3.65;;;28.20;49.10;;;;;;5066896;28;20289;-45
2022/01/11 08:02:14;;;;;;;4.18;3.78;;;28.20;49.10;;;;;;5062953;28;20286;-42
2022/01/11 08:04:45;;;;;;;5.22;3.40;;;28.20;49.10;;;;;;5063502;28;20630;-43
2022/01/11 08:07:15;;;;;;;5.22;3.53;;;28.10;49.00;;;;;;5063217;28;20437;-51
2022/01/11 08:09:47;;;;;;;5.38;3.03;;;28.10;48.90;;;;;;5067398;28;20189;-42
2022/01/11 08:12:18;;;;;;;5.07;2.60;;;28.10;48.10;;;;;;5063833;28;20197;-42
2022/01/11 08:14:48;;;;;;;5.20;2.25;;;28.10;47.60;;;;;;5061521;28;20305;-44
2022/01/11 08:17:19;;;;;;;5.05;2.60;;;28.00;47.30;;;;;;5061261;28;20314;-42
2022/01/11 08:19:49;;;;;;;7.45;3.00;;;27.90;47.20;;;;;;5067446;28;20199;-56
2022/01/11 08:22:20;;;;;;;5.55;2.88;;;27.80;47.20;;;;;;5054062;28;20282;-50
2022/01/11 08:24:52;;;;;;;4.28;2.33;;;27.70;47.20;;;;;;5061948;28;20302;-46
2022/01/11 08:27:22;;;;;;;6.45;2.72;;;27.60;47.40;;;;;;5063429;28;20629;-43
2022/01/11 08:29:53;;;;;;;6.32;2.17;;;27.60;47.60;;;;;;5064458;28;20205;-46
2022/01/11 08:32:23;;;;;;;5.43;2.10;;;27.50;46.70;;;;;;5067506;28;20844;-49
2022/01/11 08:34:54;;;;;;;6.55;2.25;;;27.40;46.90;;;;;;5063858;28;20305;-53
2022/01/11 08:37:25;;;;;;;3.53;1.80;;;27.30;47.10;;;;;;5058802;28;20281;-50
2022/01/11 08:39:57;;;;;;;4.03;2.05;;;27.30;47.30;;;;;;5062043;28;20250;-45
2022/01/11 08:42:29;;;;;;;4.07;2.15;;;27.20;47.40;;;;;;5063565;28;20253;-50
2022/01/11 08:45:01;;;;;;;4.22;2.13;;;27.20;47.60;;;;;;5065967;28;20195;-50
2022/01/11 08:47:32;;;;;;;4.03;1.80;;;27.10;48.20;;;;;;5061613;28;20194;-52
2022/01/11 08:50:03;;;;;;;4.85;2.30;;;27.10;47.70;;;;;;5062173;28;20199;-53
2022/01/11 08:52:34;;;;;;;3.45;1.98;;;27.10;47.90;;;;;;5056966;28;20736;-55
2022/01/11 08:55:08;;;;;;;5.45;2.13;;;27.00;47.90;;;;;;5064553;28;20254;-54
2022/01/11 08:57:38;;;;;;;2.42;1.85;;;27.00;48.00;;;;;;5060145;28;20191;-56
2022/01/11 09:00:16;;;;;;;3.25;2.00;;;27.00;48.10;;;;;;5061624;28;20290;-56
2022/01/11 09:02:48;;;;;;;4.32;1.90;;;27.00;48.20;;;;;;5062364;28;20228;-56
2022/01/11 09:05:19;;;;;;;3.22;1.67;;;27.00;48.20;;;;;;5064901;28;20274;-51
2022/01/11 09:07:50;;;;;;;4.78;2.25;;;26.90;48.20;;;;;;5065250;28;20273;-55
2022/01/11 09:10:23;;;;;;;2.60;1.80;;;26.90;48.20;;;;;;5060730;28;20278;-54
2022/01/11 09:12:53;;;;;;;3.53;1.95;;;26.90;48.30;;;;;;5060761;28;20309;-52
2022/01/11 09:15:24;;;;;;;4.97;2.20;;;26.90;48.30;;;;;;5061394;28;20250;-53
2022/01/11 09:17:54;;;;;;;3.85;2.05;;;26.90;48.30;;;;;;5065029;28;20287;-51
2022/01/11 09:20:25;;;;;;;3.58;1.90;;;26.80;48.30;;;;;;5061464;28;20235;-49
2022/01/11 09:22:55;;;;;;;3.80;2.10;;;26.80;48.40;;;;;;5060337;28;20314;-54
2022/01/11 09:25:28;;;;;;;2.97;2.13;;;26.80;48.40;;;;;;5059754;28;20205;-53
2022/01/11 09:27:58;;;;;;;3.05;1.88;;;26.70;48.40;;;;;;5063206;28;20294;-45
2022/01/11 09:30:29;;;;;;;2.63;1.85;;;26.70;48.40;;;;;;5066118;28;20274;-48
2022/01/11 09:32:59;;;;;;;2.22;1.90;;;26.70;48.50;;;;;;5061318;28;20306;-43
2022/01/11 09:35:30;;;;;;;3.22;1.70;;;26.70;48.50;;;;;;5058491;28;20313;-50
2022/01/11 09:38:01;;;;;;;3.00;2.25;;;26.70;48.50;;;;;;5060171;28;20685;-49
2022/01/11 09:40:33;;;;;;;3.45;1.70;;;26.60;48.50;;;;;;5065266;28;20286;-45
2022/01/11 09:43:03;;;;;;;3.33;2.38;;;26.60;48.60;;;;;;5062834;28;20290;-43
2022/01/11 09:45:34;;;;;;;2.50;1.90;;;26.60;48.70;;;;;;5060085;28;20286;-52
2022/01/11 09:48:05;;;;;;;1.83;1.63;;;26.60;48.70;;;;;;5062085;28;20226;-53
2022/01/11 09:50:36;;;;;;;2.13;1.75;;;26.50;48.60;;;;;;5064133;28;20617;-52
2022/01/11 09:53:06;;;;;;;4.18;2.10;;;26.50;48.60;;;;;;5065087;28;20227;-49
2022/01/11 09:55:38;;;;;;;2.78;1.73;;;26.50;48.60;;;;;;5062908;28;20309;-54
2022/01/11 09:58:09;;;;;;;2.17;1.98;;;26.50;48.70;;;;;;5059714;28;20313;-57
2022/01/11 10:00:40;;;;;;;1.80;1.60;;;26.50;48.70;;;;;;5062018;28;20234;-51
2022/01/11 10:03:11;;;;;;;3.15;1.90;;;26.40;48.70;;;;;;5064296;28;20318;-50
2022/01/11 10:05:42;;;;;;;4.00;2.05;;;26.40;48.70;;;;;;5064408;28;20230;-49
2022/01/11 10:08:27;;;;;;;2.03;1.70;;;26.40;48.70;;;;;;5057247;28;20281;-53
2022/01/11 10:11:00;;;;;;;2.47;1.83;;;26.40;48.80;;;;;;5058857;28;20668;-52
2022/01/11 10:13:35;;;;;;;2.25;1.90;;;26.40;48.80;;;;;;5059022;28;20310;-52
2022/01/11 10:16:26;;;;;;;2.83;2.05;;;26.30;48.70;;;;;;5064220;28;20305;-50
2022/01/11 10:18:58;;;;;;;3.08;1.98;;;26.30;48.80;;;;;;5064830;28;20268;-53
2022/01/11 10:21:40;;;;;;;3.22;2.00;;;26.30;48.90;;;;;;5062736;28;20273;-53
2022/01/11 10:24:33;;;;;;;2.30;1.60;;;26.30;48.90;;;;;;5061535;28;20317;-48
2022/01/11 10:27:07;;;;;;;2.05;1.85;;;26.20;48.90;;;;;;5049896;28;20199;-42
2022/01/11 10:29:40;;;;;;;2.42;1.60;;;26.20;48.90;;;;;;5048175;28;20234;-44
2022/01/11 10:32:24;;;;;;;2.45;1.88;;;26.20;48.90;;;;;;5033857;28;20255;-45
2022/01/11 10:34:56;;;;;;;1.80;1.70;;;26.10;48.90;;;;;;5037668;28;20278;-42
2022/01/11 10:37:37;;;;;;;1.73;1.60;;;26.10;48.90;;;;;;5038832;28;20287;-42
2022/01/11 10:40:13;;;;;;;2.95;2.00;;;26.10;48.90;;;;;;5041493;28;20651;-42
2022/01/11 10:42:48;;;;;;;2.03;1.55;;;26.10;49.00;;;;;;5045160;28;20305;-43
2022/01/11 10:45:21;;;;;;;1.98;1.60;;;26.10;49.00;;;;;;5042179;28;20202;-42
2022/01/11 10:47:54;;;;;;;2.83;1.90;;;26.10;49.00;;;;;;5044816;28;20270;-45
2022/01/11 10:50:29;;;;;;;2.92;2.08;;;26.00;49.00;;;;;;5043647;28;20287;-46
2022/01/11 10:53:00;;;;;;;3.22;1.83;;;26.00;49.00;;;;;;5040556;28;20723;-48
2022/01/11 10:55:32;;;;;;;2.85;2.03;;;26.00;49.00;;;;;;5042066;28;20741;-51
2022/01/11 10:58:06;;;;;;;2.00;1.60;;;26.00;49.10;;;;;;5045018;28;20283;-48
2022/01/11 11:00:38;;;;;;;3.20;1.70;;;26.00;49.10;;;;;;5049286;28;20198;-47
2022/01/11 11:03:12;;;;;;;2.20;1.70;;;25.90;49.00;;;;;;5040846;28;20310;-51
2022/01/11 11:05:47;;;;;;;1.95;1.60;;;25.90;49.10;;;;;;5037827;28;20196;-54
2022/01/11 11:08:20;;;;;;;2.00;1.70;;;25.90;49.10;;;;;;5037890;28;20230;-47
2022/01/11 11:10:52;;;;;;;2.13;1.92;;;25.80;49.10;;;;;;5044491;28;20278;-46
2022/01/11 11:13:34;;;;;;;2.08;1.88;;;25.80;49.10;;;;;;5036434;28;20311;-47
2022/01/11 11:16:16;;;;;;;2.13;1.70;;;25.80;49.20;;;;;;5047986;28;20258;-51
2022/01/11 11:18:50;;;;;;;2.10;1.50;;;25.80;49.20;;;;;;5049338;28;20324;-48
2022/01/11 11:21:23;;;;;;;1.98;1.50;;;25.80;49.20;;;;;;5050668;28;20286;-46
2022/01/11 11:23:55;;;;;;;2.53;1.77;;;25.70;49.20;;;;;;5034173;28;20219;-44
2022/01/11 11:26:28;;;;;;;2.50;1.40;;;25.70;49.20;;;;;;5059585;28;20608;-45
2022/01/11 11:29:00;;;;;;;2.13;1.67;;;25.70;49.30;;;;;;5048500;28;20291;-43
2022/01/11 11:31:34;;;;;;;2.30;1.70;;;25.70;49.30;;;;;;5046194;28;20207;-42
2022/01/11 11:34:05;;;;;;;2.83;1.83;;;25.70;49.30;;;;;;5041170;28;20285;-42
2022/01/11 11:36:35;;;;;;;2.88;1.80;;;25.60;49.20;;;;;;5051351;28;20346;-45
2022/01/11 11:39:11;;;;;;;1.73;1.60;;;25.60;49.20;;;;;;5036287;28;20283;-46
2022/01/11 11:41:44;;;;;;;1.70;1.60;;;25.60;49.20;;;;;;5041081;28;20210;-48
2022/01/11 11:44:19;;;;;;;2.33;1.70;;;25.60;49.30;;;;;;5038488;28;20219;-52
2022/01/11 11:46:53;;;;;;;1.88;1.50;;;25.50;49.20;;;;;;5036991;28;20282;-44
2022/01/11 11:49:45;;;;;;;2.10;1.70;;;25.50;49.30;;;;;;5032435;28;20278;-45
2022/01/11 11:52:27;;;;;;;3.10;1.73;;;25.50;49.20;;;;;;5048475;28;20200;-42
2022/01/11 11:55:00;;;;;;;1.98;1.50;;;25.50;49.30;;;;;;5056632;28;20248;-42
2022/01/11 11:57:33;;;;;;;1.92;1.65;;;25.50;49.30;;;;;;5049636;28;20649;-46
2022/01/11 12:00:09;;;;;;;1.45;1.25;;;25.50;49.40;;;;;;5036888;28;20211;-42
2022/01/11 12:02:41;;;;;;;1.65;1.50;;;25.40;49.30;;;;;;5034383;28;20215;-51
2022/01/11 12:05:13;;;;;;;1.95;1.60;;;25.40;49.40;;;;;;5062452;28;20285;-42
2022/01/11 12:07:46;;;;;;;1.60;1.50;;;25.30;49.30;;;;;;5048325;28;20322;-42
2022/01/11 12:10:26;;;;;;;1.48;1.30;;;25.30;49.30;;;;;;5045631;28;20283;-44
2022/01/11 12:12:58;;;;;;;1.60;1.35;;;25.30;49.40;;;;;;5042418;28;20251;-48
2022/01/11 12:15:40;;;;;;;2.00;1.65;;;25.30;49.40;;;;;;5031443;28;20286;-50
2022/01/11 12:18:19;;;;;;;1.92;1.52;;;25.30;49.40;;;;;;5048805;28;20230;-42
2022/01/11 12:20:52;;;;;;;2.33;1.40;;;25.30;49.40;;;;;;5038488;28;20288;-45
2022/01/11 12:24:02;;;;;;;1.80;1.48;;;25.20;50.00;;;;;;5043171;28;20212;-42
2022/01/11 12:26:34;;;;;;;2.17;1.55;;;25.20;49.40;;;;;;5033926;28;20295;-43
2022/01/11 12:29:27;;;;;;;2.15;1.50;;;25.20;49.40;;;;;;5048089;28;20258;-50
2022/01/11 12:32:05;;;;;;;1.52;1.40;;;25.20;49.40;;;;;;5034496;28;20274;-52
2022/01/11 12:34:56;;;;;;;1.50;1.40;;;25.10;49.30;;;;;;5048990;28;20333;-43
2022/01/11 12:37:35;;;;;;;1.75;1.30;;;25.10;49.30;;;;;;5047801;28;20317;-48
2022/01/11 12:40:21;;;;;;;1.67;1.50;;;25.10;49.30;;;;;;5046598;28;20286;-42
2022/01/11 12:42:54;;;;;;;1.95;1.48;;;25.10;50.00;;;;;;5044228;28;20665;-42
2022/01/11 12:46:03;;;;;;;1.77;1.40;;;25.10;49.40;;;;;;5047982;28;20622;-43
2022/01/11 12:49:01;;;;;;;1.50;1.40;;;25.10;49.50;;;;;;5034459;28;20682;-52
2022/01/11 12:51:39;;;;;;;1.50;1.30;;;25.00;49.40;;;;;;5034809;28;20230;-53
2022/01/11 12:54:18;;;;;;;1.42;1.20;;;25.00;49.50;;;;;;5049728;28;20211;-47
2022/01/11 12:56:49;;;;;;;2.33;1.60;;;25.00;49.50;;;;;;5046414;28;20313;-46
2022/01/11 12:59:20;;;;;;;1.70;1.40;;;24.90;49.50;;;;;;5046304;28;20279;-44
2022/01/11 13:01:59;;;;;;;1.50;1.20;;;24.90;49.60;;;;;;5042983;28;20743;-50
2022/01/11 13:04:42;;;;;;;2.33;1.80;;;24.90;49.50;;;;;;5043442;28;20305;-52
2022/01/11 13:07:22;;;;;;;1.42;1.33;;;24.90;49.60;;;;;;5031571;28;20291;-42
2022/01/11 13:10:09;;;;;;;1.90;1.40;;;24.90;49.60;;;;;;5047485;28;20844;-48
2022/01/11 13:12:41;;;;;;;1.77;1.52;;;24.80;49.50;;;;;;5045003;28;20281;-44
2022/01/11 13:15:15;;;;;;;1.75;1.40;;;24.80;49.50;;;;;;5046322;28;20226;-42